EHVL 200125Z AUTO 28008KT 9999 OVC170 11/10 Q1021 BLU EHVL 200055Z AUTO 28010KT 9999 BKN180 OVC270 11/10 Q1021 BLU EHVL 200025Z AUTO 26014KT 9999 FEW007 OVC290 12/10 Q1021 BLU EHVL 200018Z AUTO 26014KT 9999 FEW007 OVC290 12/10 Q1021 BLU EHVL 200015Z AUTO 26014KT 9999 SCT006 OVC300 12/10 Q1021 YLO EHVL 200004Z AUTO 26014KT 9999 FEW006 OVC300 12/11 Q1021 BLU EHVL 200000Z AUTO 26014KT 9999 FEW005 SCT007 OVC300 12/11 Q1021 GRN EHVL 192355Z AUTO 26013KT 9999 BKN005 BKN007 BKN008 12/11 Q1021 YLO EHVL 192349Z AUTO 25013KT 9999 SCT006 BKN007 BKN009 12/11 Q1021 YLO EHVL 192345Z AUTO 25014KT 9999 FEW006 SCT007 BKN008 12/11 Q1021 GRN EHVL 192341Z AUTO 25013KT 9999 FEW006 SCT007 OVC310 12/11 Q1021 GRN EHVL 192334Z AUTO 25012KT 9999 SCT006 OVC310 12/11 Q1021 YLO EHVL 192325Z AUTO 25012KT 9999 OVC340 12/11 Q1021 BLU EHVL 192255Z AUTO 26010KT 9999 OVC340 12/11 Q1021 BLU EHVL 192225Z AUTO 26009KT 9999 SCT360 11/11 Q1021 BLU EHVL 192155Z AUTO 28010KT 9999 NCD 12/11 Q1021 BLU EHVL 192137Z AUTO 28011KT 9999 FEW005 12/11 Q1021 BLU EHVL 192125Z AUTO 28012KT 9999 FEW004 BKN005 12/11 Q1021 YLO EHVL 192055Z AUTO 27015KT 9999 BKN005 BKN006 OVC340 12/11 Q1020 YLO EHVL 192051Z AUTO 27015KT 9999 SCT005 BKN340 12/11 Q1020 YLO EHVL 192039Z AUTO 27016KT 9999 FEW005 12/11 Q1020 BLU EHVL 192029Z AUTO 27015KT 9999 SCT005 12/11 Q1020 YLO EHVL 192025Z AUTO 27015KT 9999 FEW005 SCT007 12/11 Q1020 GRN EHVL 192018Z AUTO 27014KT 9999 FEW005 SCT007 12/11 Q1020 GRN EHVL 192015Z AUTO 26014KT 9999 SCT006 BKN270 12/11 Q1020 YLO EHVL 191955Z AUTO 28011KT 9999 OVC240 12/11 Q1020 BLU EHVL 191925Z AUTO 28011KT 9999 FEW006 OVC260 12/11 Q1019 BLU EHVL 191859Z AUTO 29014KT 9999 FEW005 12/11 Q1019 BLU EHVL 191855Z AUTO 29014KT 9999 SCT004 12/11 Q1019 YLO EHVL 191830Z AUTO 29013KT 9999 BKN005 BKN300 13/12 Q1019 YLO EHVL 191829Z AUTO 29014KT 9999 SCT005 SCT300 13/12 Q1019 YLO EHVL 191825Z AUTO 28014KT 9999 FEW005 13/12 Q1019 BLU EHVL 191755Z AUTO 29014KT 9999 NCD 13/12 Q1019 BLU EHVL 191725Z AUTO 29015KT 9999 SCT048 SCT052 13/12 Q1018 BLU EHVL 191714Z AUTO 29016KT 9999 FEW005 SCT052 13/12 Q1018 BLU EHVL 191705Z AUTO 29016KT 9999 BKN005 BKN041 BKN046 13/12 Q1018 YLO EHVL 191658Z AUTO 29016KT 9999 SCT005 BKN039 OVC044 13/12 Q1018 YLO EHVL 191655Z AUTO 29015KT 9999 FEW005 OVC039 14/12 Q1018 BLU EHVL 191633Z AUTO 29014KT 9999 SCT005 BKN006 OVC036 14/12 Q1018 YLO EHVL 191629Z AUTO 29014KT 9999 FEW005 SCT006 OVC035 14/12 Q1018 YLO EHVL 191625Z AUTO 29013KT 9999 FEW004 SCT029 OVC035 14/13 Q1017 BLU EHVL 191600Z AUTO 28014KT 9999 SCT004 BKN005 OVC019 14/13 Q1017 YLO EHVL 191559Z AUTO 28013KT 9999 SCT004 BKN015 OVC019 15/13 Q1017 YLO EHVL 191555Z AUTO 28011KT 9999 SCT011 SCT014 OVC017 15/14 Q1017 GRN EHVL 191537Z AUTO 28014KT 9999 BKN011 BKN014 OVC019 14/13 Q1017 GRN EHVL 191533Z AUTO 28015KT 9999 SCT011 SCT014 BKN016 15/13 Q1017 GRN EHVL 191529Z AUTO 28015KT 9999 FEW007 SCT013 BKN016 15/13 Q1017 GRN EHVL 191525Z AUTO 28016KT 9999 SCT006 BKN008 BKN014 15/13 Q1017 YLO EHVL 191517Z AUTO 27017KT 9999 SCT006 BKN014 OVC018 15/14 Q1017 YLO EHVL 191455Z AUTO 26015KT 9999 FEW006 SCT007 BKN008 17/15 Q1017 GRN EHVL 191451Z AUTO 27016KT 9999 FEW006 BKN007 BKN008 17/15 Q1017 GRN EHVL 191445Z AUTO 25014KT 200V280 9999 FEW005 SCT006 OVC330 17/15 Q1017 YLO EHVL 191435Z AUTO 21008KT 9999 FEW004 SCT005 OVC320 19/17 Q1016 YLO EHVL 191425Z AUTO 19006KT 160V220 9999 FEW004 OVC270 19/17 Q1016 BLU EHVL 191355Z AUTO 23004KT 9999 OVC220 18/16 Q1016 BLU EHVL 191329Z AUTO 14007KT 9999 FEW015CB OVC100 17/16 Q1016 BLU EHVL 191325Z AUTO 14009KT 9999 SCT015CB SCT091 BKN096 OVC102 17/16 Q1016 WHT EHVL 191318Z AUTO 14009KT 9999 FEW001 BKN015CB BKN089 OVC098 17/16 Q1016 WHT EHVL 191314Z AUTO 13009KT 9999 -RA FEW001 BKN015CB BKN089 OVC096 17/16 Q1016 WHT EHVL 191313Z AUTO 14007KT 110V180 9999 -RA FEW001 SCT005 BKN015CB 17/16 Q1016 YLO EHVL 191259Z AUTO 18006KT 140V210 7000 -SHRA SCT015CB OVC092 17/16 Q1016 WHT EHVL 191255Z AUTO 20007KT 5000 -RA FEW015CB BKN080 OVC093 17/16 Q1017 RERA REDZ WHT EHVL 191239Z AUTO 22007KT 7000 DZRA FEW015CB BKN083 OVC090 17/16 Q1017 WHT EHVL 191226Z AUTO 20007KT 9000 BR SCT015CB BKN083 OVC088 17/16 Q1017 WHT EHVL 191225Z AUTO 20007KT 9000 -RA FEW002/// SCT083/// BKN088/// 17/16 Q1017 BLU EHVL 191214Z AUTO 21007KT 8000 -SHRA FEW002/// SCT050/// BKN069/// 17/16 Q1017 BLU EHVL 191208Z AUTO 20007KT 6000 -SHRA FEW000 SCT072 BKN085 16/16 Q1017 WHT EHVL 191159Z AUTO 21009KT 3900 RA SCT005 BKN050 OVC058 16/16 Q1018 YLO EHVL 191155Z AUTO 22010KT 3500 SHRA FEW005 SCT051 BKN059 16/16 Q1018 RETS YLO EHVL 191140Z AUTO 25009KT 4000 -SHRA FEW003 SCT015CB OVC084 16/15 Q1017 GRN EHVL 191129Z AUTO 27012KT 3100 TSRA FEW005 FEW015CB SCT024 OVC069 16/15 Q1017 YLO EHVL 191125Z AUTO 25013KT 210V290 2900 -SHRA FEW005 FEW015CB SCT024 BKN065 17/15 Q1017 YLO EHVL 191119Z AUTO 22009KT 190V260 3300 SHRA FEW001 FEW015CB SCT053 BKN065 18/17 Q1017 YLO EHVL 191112Z AUTO 21008KT 4400 -SHRA FEW001 FEW015CB SCT040 BKN055 18/17 Q1017 GRN EHVL 191111Z AUTO 20007KT 4200 -RA FEW001 FEW015CB SCT044 OVC071 18/17 Q1017 GRN EHVL 191055Z AUTO 20008KT 7000 BR FEW007 FEW015CB OVC079 18/17 Q1017 WHT EHVL 191050Z AUTO 18008KT 070V230 9000 BR FEW007 FEW015CB BKN079 OVC084 18/17 Q1016 BLU EHVL 191025Z AUTO 13012KT 7000 BR OVC086 18/17 Q1015 WHT EHVL 191001Z AUTO 12016KT 7000 BR SCT091 BKN097 OVC100 18/17 Q1015 WHT EHVL 190959Z AUTO 12016KT 8000 BR FEW074 SCT098 OVC100 18/17 Q1015 BLU EHVL 190955Z AUTO 11017KT 6000 BR FEW065 OVC100 18/17 Q1015 WHT EHVL 190948Z AUTO 11016KT 6000 BR FEW064 SCT070 OVC100 18/17 Q1015 WHT EHVL 190925Z AUTO 09013KT 3100 -DZ FEW015CB SCT081 BKN092 17/16 Q1015 REDZ YLO EHVL 190912Z AUTO 09012KT 3200 DZ FEW002 FEW015CB SCT068 BKN089 17/16 Q1015 YLO EHVL 190908Z AUTO 09011KT 3000 DZRA SCT001 SCT015CB BKN069 17/17 Q1015 RED EHVL 190906Z AUTO 09011KT 3100 -RA SCT001 SCT015CB BKN090 17/17 Q1015 RED EHVL 190855Z AUTO 10010KT 3400 -RA FEW002 SCT015CB BKN090 OVC096 17/17 Q1016 YLO EHVL 190846Z AUTO 11007KT 4300 DZ FEW015CB OVC098 17/17 Q1016 GRN EHVL 190833Z AUTO 14007KT 3700 -DZ FEW015CB BKN087 OVC093 17/16 Q1017 GRN EHVL 190829Z AUTO 14006KT 3600 DZ FEW015CB SCT080 OVC085 17/16 Q1017 YLO EHVL 190825Z AUTO 14004KT 110V190 4000 -DZ FEW015CB SCT080 BKN085 BKN091 17/16 Q1017 RETS GRN EHVL 190819Z AUTO 17005KT 110V210 3400 -RA FEW015CB BKN085 BKN092 17/16 Q1017 YLO EHVL 190811Z AUTO 21006KT 4000 BR FEW015CB SCT048 BKN064 17/16 Q1017 GRN EHVL 190800Z AUTO 25008KT 210V290 2700 TS BR FEW015CB BKN049 OVC055 16/16 Q1017 YLO EHVL 190759Z AUTO 27008KT 2500 BR FEW015CB BKN050 OVC055 16/16 Q1017 YLO EHVL 190755Z AUTO 27007KT 200V290 4100 BR FEW015CB BKN051 BKN059 BKN064 17/16 Q1017 GRN EHVL 190742Z AUTO 18004KT 150V210 6000 -RA FEW015CB SCT075 OVC081 17/16 Q1017 WHT EHVL 190729Z AUTO VRB02KT 5000 BR BKN077 OVC083 17/17 Q1016 WHT EHVL 190725Z AUTO 10005KT 3900 BR BKN076 OVC087 17/17 Q1016 GRN EHVL 190655Z AUTO 11011KT 2600 BR OVC100 17/16 Q1016 YLO EHVL 190625Z AUTO 08003KT 2800 BR FEW070 OVC079 17/17 Q1016 YLO EHVL 190604Z AUTO 10005KT 080V140 3100 -RA FEW001 FEW015CB SCT019 BKN058 17/16 Q1016 YLO EHVL 190600Z AUTO 12004KT 3700 -SHRA FEW000 SCT010 FEW015CB BKN046 17/16 Q1017 GRN EHVL 190555Z AUTO 13003KT 110V170 2900 SHRA +DZ FEW007 FEW015CB SCT050 BKN068 17/16 Q1017 YLO EHVL 190547Z AUTO 15005KT 4200 -RA FEW015CB BKN050 BKN056 17/16 Q1017 GRN EHVL 190538Z AUTO 15006KT 3100 DZRA SCT015CB BKN048 OVC053 17/16 Q1017 YLO EHVL 190534Z AUTO 14008KT 2700 -RA SCT015CB OVC047 17/16 Q1017 YLO EHVL 190525Z AUTO 15007KT 1700 -RA FEW005 BKN015CB BKN031 BKN035 16/16 Q1017 RETSRA YLO EHVL 190459Z AUTO 19006KT 1100 +TSRA BKN000 BKN015CB 16/15 Q1018 RED EHVL 190455Z AUTO 21009KT 2600 +TSRA BKN000 BKN003 BKN007 BKN015CB 16/15 Q1018 RED EHVL 190450Z AUTO 22011KT 2900 +TSRA FEW000 SCT003 BKN009 SCT015CB 16/15 Q1018 YLO EHVL 190443Z AUTO 21010KT 170V230 3300 TSRA FEW005 FEW015CB BKN031 OVC048 17/15 Q1018 YLO EHVL 190441Z AUTO 20008KT 170V230 5000 TSRA FEW005 FEW015CB OVC030 17/15 Q1018 WHT EHVL 190425Z AUTO 22012KT 150V260 8000 -TSRA FEW001 FEW015CB SCT017 BKN080 17/15 Q1018 WHT EHVL 190419Z AUTO 22017G29KT 130V270 7000 -TSRA FEW013 FEW015CB SCT019 OVC077 16/15 Q1017 WHT EHVL 190412Z AUTO 18015KT 130V270 7000 TS BR FEW015CB BKN077 BKN084 BKN091 17/15 Q1016 WHT EHVL 190411Z AUTO 14015KT 7000 -TSRA FEW001 FEW015CB SCT020 BKN077 17/15 Q1016 WHT EHVL 190403Z AUTO 14016KT 6000 -TSRA FEW000 SCT004 BKN005 FEW015CB 17/15 Q1016 YLO EHVL 190400Z AUTO 14017KT 6000 -TSRA FEW000 SCT005 BKN008 FEW015CB 17/15 Q1016 YLO EHVL 190355Z AUTO 14018KT 6000 -TSRA FEW000 SCT005 BKN012 FEW015CB 17/15 Q1015 YLO EHVL 190344Z AUTO 13018KT 5000 -TSRA BKN000 BKN005 FEW015CB OVC053 16/15 Q1015 RED EHVL 190343Z AUTO 13020KT 5000 -TSRA SCT000 SCT005 FEW015CB BKN027 16/15 Q1015 RED EHVL 190339Z AUTO 14021KT 5000 -TSRA FEW000 FEW015CB BKN070 OVC087 16/15 Q1015 WHT EHVL 190332Z AUTO 13019KT 9000 -TSRA FEW000 FEW015CB SCT071 OVC086 16/15 Q1015 BLU EHVL 190326Z AUTO 13014KT 6000 -TSRA FEW000 SCT005 FEW015CB BKN069 16/15 Q1015 YLO EHVL 190325Z AUTO 13014KT 5000 TSRA FEW000 SCT009 FEW015CB BKN068 16/15 Q1015 GRN EHVL 190314Z AUTO 13014KT 9999 TS FEW015CB OVC100 16/15 Q1015 BLU EHVL 190255Z AUTO 13014KT 9999 BKN100 OVC190 16/15 Q1016 BLU EHVL 190225Z AUTO 13013KT 9999 SCT120 OVC200 16/15 Q1016 BLU EHVL 190155Z AUTO 12015KT 9999 OVC230 16/15 Q1016 BLU EHVL 190125Z AUTO 12016KT 9999 OVC230 16/14 Q1016 BLU EHVL 190055Z AUTO 11016KT 9999 OVC220 16/14 Q1017 BLU EHVL 190025Z AUTO 11015KT 9999 OVC230 16/13 Q1017 BLU EHVL 182355Z AUTO 11013KT 9999 OVC110 15/13 Q1018 BLU EHVL 182325Z AUTO 09009KT 9999 SCT110 OVC250 14/14 Q1018 BLU EHVL 182255Z AUTO 08006KT 9999 OVC230 13/13 Q1019 BLU EHVL 182225Z AUTO 07007KT 9999 OVC210 13/12 Q1019 BLU EHVL 182155Z AUTO 07007KT 9999 OVC220 13/12 Q1019 BLU EHVL 182125Z AUTO 07007KT 9999 OVC240 14/13 Q1019 BLU EHVL 182055Z AUTO 06005KT 9999 OVC240 12/10 Q1019 BLU EHVL 182025Z AUTO 05004KT 9999 OVC260 12/11 Q1020 BLU EHVL 181955Z AUTO 06004KT 9999 OVC260 13/11 Q1019 BLU EHVL 181925Z AUTO 04003KT 9999 OVC260 13/12 Q1020 BLU EHVL 181855Z AUTO 01003KT 340V040 9999 OVC260 14/12 Q1020 BLU EHVL 181825Z AUTO 35003KT 9999 OVC240 14/12 Q1020 BLU EHVL 181755Z AUTO 01003KT 330V030 9999 OVC240 15/12 Q1020 BLU EHVL 181725Z AUTO 02005KT 9999 OVC250 15/12 Q1020 BLU EHVL 181655Z AUTO 35004KT 9999 OVC270 15/12 Q1021 BLU EHVL 181625Z AUTO 34006KT 310V010 9999 OVC360 15/11 Q1021 BLU EHVL 181555Z AUTO 34006KT 9999 SCT280 OVC360 16/11 Q1021 BLU EHVL 181525Z AUTO 33005KT 9999 BKN260 OVC330 16/12 Q1021 BLU EHVL 181455Z AUTO 34007KT 9999 BKN270 OVC350 16/12 Q1021 BLU EHVL 181425Z AUTO 33008KT 9999 BKN260 OVC350 16/11 Q1021 BLU EHVL 181355Z AUTO 33009KT 9999 OVC290 16/11 Q1021 BLU

METAR Messwerte "VLIELAND ISLAND" EHVL

Zurück zur Übersicht

Ortsname
Ländercode / m ü. NN
Zeit Temperatur Taupunkt Rel.
Luftfeuchte
Luftdruck:
Altimeter
NN
Station
Wind in Beaufort
(Knoten)
Sichtweite
(Meter)
Wolken
(Meter über Grund)
Wettererscheinung
VLIELAND ISLAND
NL 2
Fr 20.05. 03:25111094 %1021
1021
1021
W 3 (8)>= 10000Bedeckt (5200) 
VLIELAND ISLAND
NL 2
Fr 20.05. 02:55111094 %1021
1021
1021
W 3 (10)>= 10000Bedeckt (8200)
Stark bewölkt (5500)
 
VLIELAND ISLAND
NL 2
Fr 20.05. 02:25121088 %1021
1021
1021
W 4 (14)>= 10000Bedeckt (8800)
Leicht bewölkt (210)
 
VLIELAND ISLAND
NL 2
Fr 20.05. 02:18121088 %1021
1021
1021
W 4 (14)>= 10000Bedeckt (8800)
Leicht bewölkt (210)
 
VLIELAND ISLAND
NL 2
Fr 20.05. 02:15121088 %1021
1021
1021
W 4 (14)>= 10000Bedeckt (9100)
Wolkig (180)
 
VLIELAND ISLAND
NL 2
Fr 20.05. 02:04121194 %1021
1021
1021
W 4 (14)>= 10000Bedeckt (9100)
Leicht bewölkt (180)
 
VLIELAND ISLAND
NL 2
Fr 20.05. 02:00121194 %1021
1021
1021
W 4 (14)>= 10000Bedeckt (9100)
Wolkig (210)
Leicht bewölkt (150)
 
VLIELAND ISLAND
NL 2
Fr 20.05. 01:55121194 %1021
1021
1021
W 4 (13)>= 10000Stark bewölkt (240)
Stark bewölkt (210)
Stark bewölkt (150)
 
VLIELAND ISLAND
NL 2
Fr 20.05. 01:49121194 %1021
1021
1021
WSW 4 (13)>= 10000Stark bewölkt (270)
Stark bewölkt (210)
Wolkig (180)
 
VLIELAND ISLAND
NL 2
Fr 20.05. 01:45121194 %1021
1021
1021
WSW 4 (14)>= 10000Stark bewölkt (240)
Wolkig (210)
Leicht bewölkt (180)
 
VLIELAND ISLAND
NL 2
Fr 20.05. 01:41121194 %1021
1021
1021
WSW 4 (13)>= 10000Bedeckt (9400)
Wolkig (210)
Leicht bewölkt (180)
 
VLIELAND ISLAND
NL 2
Fr 20.05. 01:34121194 %1021
1021
1021
WSW 4 (12)>= 10000Bedeckt (9400)
Wolkig (180)
 
VLIELAND ISLAND
NL 2
Fr 20.05. 01:25121194 %1021
1021
1021
WSW 4 (12)>= 10000Bedeckt (10000) 
VLIELAND ISLAND
NL 2
Fr 20.05. 00:55121194 %1021
1021
1021
W 3 (10)>= 10000Bedeckt (10000) 
VLIELAND ISLAND
NL 2
Fr 20.05. 00:251111100 %1021
1021
1021
W 3 (9)>= 10000Wolkig (11000) 
VLIELAND ISLAND
NL 2
Do 19.05. 23:55121194 %1021
1021
1021
W 3 (10)>= 10000  
VLIELAND ISLAND
NL 2
Do 19.05. 23:37121194 %1021
1021
1021
W 4 (11)>= 10000Leicht bewölkt (150) 
VLIELAND ISLAND
NL 2
Do 19.05. 23:25121194 %1021
1021
1021
W 4 (12)>= 10000Stark bewölkt (150)
Leicht bewölkt (120)
 
VLIELAND ISLAND
NL 2
Do 19.05. 22:55121194 %1020
1020
1020
W 4 (15)>= 10000Bedeckt (10000)
Stark bewölkt (180)
Stark bewölkt (150)
 
VLIELAND ISLAND
NL 2
Do 19.05. 22:51121194 %1020
1020
1020
W 4 (15)>= 10000Stark bewölkt (10000)
Wolkig (150)
 
VLIELAND ISLAND
NL 2
Do 19.05. 22:39121194 %1020
1020
1020
W 5 (16)>= 10000Leicht bewölkt (150) 
VLIELAND ISLAND
NL 2
Do 19.05. 22:29121194 %1020
1020
1020
W 4 (15)>= 10000Wolkig (150) 
VLIELAND ISLAND
NL 2
Do 19.05. 22:25121194 %1020
1020
1020
W 4 (15)>= 10000Wolkig (210)
Leicht bewölkt (150)
 
VLIELAND ISLAND
NL 2
Do 19.05. 22:18121194 %1020
1020
1020
W 4 (14)>= 10000Wolkig (210)
Leicht bewölkt (150)
 
VLIELAND ISLAND
NL 2
Do 19.05. 22:15121194 %1020
1020
1020
W 4 (14)>= 10000Stark bewölkt (8200)
Wolkig (180)
 
VLIELAND ISLAND
NL 2
Do 19.05. 21:55121194 %1020
1020
1020
W 4 (11)>= 10000Bedeckt (7300) 
VLIELAND ISLAND
NL 2
Do 19.05. 21:25121194 %1019
1019
1019
W 4 (11)>= 10000Bedeckt (7900)
Leicht bewölkt (180)
 
VLIELAND ISLAND
NL 2
Do 19.05. 20:59121194 %1019
1019
1019
WNW 4 (14)>= 10000Leicht bewölkt (150) 
VLIELAND ISLAND
NL 2
Do 19.05. 20:55121194 %1019
1019
1019
WNW 4 (14)>= 10000Wolkig (120) 
VLIELAND ISLAND
NL 2
Do 19.05. 20:30131294 %1019
1019
1019
WNW 4 (13)>= 10000Stark bewölkt (9100)
Stark bewölkt (150)
 
VLIELAND ISLAND
NL 2
Do 19.05. 20:29131294 %1019
1019
1019
WNW 4 (14)>= 10000Wolkig (9100)
Wolkig (150)
 
VLIELAND ISLAND
NL 2
Do 19.05. 20:25131294 %1019
1019
1019
W 4 (14)>= 10000Leicht bewölkt (150) 
VLIELAND ISLAND
NL 2
Do 19.05. 19:55131294 %1019
1019
1019
WNW 4 (14)>= 10000  
VLIELAND ISLAND
NL 2
Do 19.05. 19:25131294 %1018
1018
1018
WNW 4 (15)>= 10000Wolkig (1600)
Wolkig (1500)
 
VLIELAND ISLAND
NL 2
Do 19.05. 19:14131294 %1018
1018
1018
WNW 5 (16)>= 10000Wolkig (1600)
Leicht bewölkt (150)
 
VLIELAND ISLAND
NL 2
Do 19.05. 19:05131294 %1018
1018
1018
WNW 5 (16)>= 10000Stark bewölkt (1400)
Stark bewölkt (1200)
Stark bewölkt (150)
 
VLIELAND ISLAND
NL 2
Do 19.05. 18:58131294 %1018
1018
1018
WNW 5 (16)>= 10000Bedeckt (1300)
Stark bewölkt (1200)
Wolkig (150)
 
VLIELAND ISLAND
NL 2
Do 19.05. 18:55141288 %1018
1018
1018
WNW 4 (15)>= 10000Bedeckt (1200)
Leicht bewölkt (150)
 
VLIELAND ISLAND
NL 2
Do 19.05. 18:33141288 %1018
1018
1018
WNW 4 (14)>= 10000Bedeckt (1100)
Stark bewölkt (180)
Wolkig (150)
 
VLIELAND ISLAND
NL 2
Do 19.05. 18:29141288 %1018
1018
1018
WNW 4 (14)>= 10000Bedeckt (1100)
Wolkig (180)
Leicht bewölkt (150)
 
VLIELAND ISLAND
NL 2
Do 19.05. 18:25141394 %1017
1017
1017
WNW 4 (13)>= 10000Bedeckt (1100)
Wolkig (880)
Leicht bewölkt (120)
 
VLIELAND ISLAND
NL 2
Do 19.05. 18:00141394 %1017
1017
1017
W 4 (14)>= 10000Bedeckt (580)
Stark bewölkt (150)
Wolkig (120)
 
VLIELAND ISLAND
NL 2
Do 19.05. 17:59151388 %1017
1017
1017
W 4 (13)>= 10000Bedeckt (580)
Stark bewölkt (460)
Wolkig (120)
 
VLIELAND ISLAND
NL 2
Do 19.05. 17:55151494 %1017
1017
1017
W 4 (11)>= 10000Bedeckt (520)
Wolkig (430)
Wolkig (340)
 
VLIELAND ISLAND
NL 2
Do 19.05. 17:37141394 %1017
1017
1017
W 4 (14)>= 10000Bedeckt (580)
Stark bewölkt (430)
Stark bewölkt (340)
 
VLIELAND ISLAND
NL 2
Do 19.05. 17:33151388 %1017
1017
1017
W 4 (15)>= 10000Stark bewölkt (490)
Wolkig (430)
Wolkig (340)
 
VLIELAND ISLAND
NL 2
Do 19.05. 17:29151388 %1017
1017
1017
W 4 (15)>= 10000Stark bewölkt (490)
Wolkig (400)
Leicht bewölkt (210)
 
VLIELAND ISLAND
NL 2
Do 19.05. 17:25151388 %1017
1017
1017
W 5 (16)>= 10000Stark bewölkt (430)
Stark bewölkt (240)
Wolkig (180)
 
VLIELAND ISLAND
NL 2
Do 19.05. 17:17151494 %1017
1017
1017
W 5 (17)>= 10000Bedeckt (550)
Stark bewölkt (430)
Wolkig (180)
 
VLIELAND ISLAND
NL 2
Do 19.05. 16:55171588 %1017
1017
1017
W 4 (15)>= 10000Stark bewölkt (240)
Wolkig (210)
Leicht bewölkt (180)
 
VLIELAND ISLAND
NL 2
Do 19.05. 16:51171588 %1017
1017
1017
W 5 (16)>= 10000Stark bewölkt (240)
Stark bewölkt (210)
Leicht bewölkt (180)
 
VLIELAND ISLAND
NL 2
Do 19.05. 16:45171588 %1017
1017
1017
WSW 4 (14)
SSW - W
>= 10000Bedeckt (10000)
Wolkig (180)
Leicht bewölkt (150)
 
VLIELAND ISLAND
NL 2
Do 19.05. 16:35191788 %1016
1016
1016
SSW 3 (8)>= 10000Bedeckt (9800)
Wolkig (150)
Leicht bewölkt (120)
 
VLIELAND ISLAND
NL 2
Do 19.05. 16:25191788 %1016
1016
1016
S 2 (6)
SSO - SW
>= 10000Bedeckt (8200)
Leicht bewölkt (120)
 
VLIELAND ISLAND
NL 2
Do 19.05. 15:55181688 %1016
1016
1016
SW 2 (4)>= 10000Bedeckt (6700) 
VLIELAND ISLAND
NL 2
Do 19.05. 15:29171694 %1016
1016
1016
SO 3 (7)>= 10000Bedeckt (3000)
Leicht bewölkt Cb (460)
 
VLIELAND ISLAND
NL 2
Do 19.05. 15:25171694 %1016
1016
1016
SO 3 (9)>= 10000Bedeckt (3100)
Stark bewölkt (2900)
Wolkig (2800)
Wolkig Cb (460)
 
VLIELAND ISLAND
NL 2
Do 19.05. 15:18171694 %1016
1016
1016
SO 3 (9)>= 10000Bedeckt (3000)
Stark bewölkt (2700)
Stark bewölkt Cb (460)
Leicht bewölkt (30)
 
VLIELAND ISLAND
NL 2
Do 19.05. 15:14171694 %1016
1016
1016
SO 3 (9)>= 10000Bedeckt (2900)
Stark bewölkt (2700)
Stark bewölkt Cb (460)
Leicht bewölkt (30)
Regen (schwach)
VLIELAND ISLAND
NL 2
Do 19.05. 15:13171694 %1016
1016
1016
SO 3 (7)
OSO - S
>= 10000Stark bewölkt Cb (460)
Wolkig (150)
Leicht bewölkt (30)
Regen (schwach)
VLIELAND ISLAND
NL 2
Do 19.05. 14:59171694 %1016
1016
1016
S 2 (6)
SO - SSW
7000Bedeckt (2800)
Wolkig Cb (460)
Regen-Schauer (schwach)
VLIELAND ISLAND
NL 2
Do 19.05. 14:55171694 %1017
1017
1017
SSW 3 (7)5000Bedeckt (2800)
Stark bewölkt (2400)
Leicht bewölkt Cb (460)
Regen (schwach)
VLIELAND ISLAND
NL 2
Do 19.05. 14:39171694 %1017
1017
1017
SW 3 (7)7000Bedeckt (2700)
Stark bewölkt (2500)
Leicht bewölkt Cb (460)
Nieselregen/Regen
VLIELAND ISLAND
NL 2
Do 19.05. 14:26171694 %1017
1017
1017
SSW 3 (7)9000Bedeckt (2700)
Stark bewölkt (2500)
Wolkig Cb (460)
Nebeldunst
VLIELAND ISLAND
NL 2
Do 19.05. 14:25171694 %1017
1017
1017
SSW 3 (7)9000Stark bewölkt (2700)
Wolkig (2500)
Leicht bewölkt (61)
Regen (schwach)
VLIELAND ISLAND
NL 2
Do 19.05. 14:14171694 %1017
1017
1017
SSW 3 (7)8000Stark bewölkt (2100)
Wolkig (1500)
Leicht bewölkt (61)
Regen-Schauer (schwach)
VLIELAND ISLAND
NL 2
Do 19.05. 14:081616100 %1017
1017
1017
SSW 3 (7)6000Stark bewölkt (2600)
Wolkig (2200)
Leicht bewölkt (0)
Regen-Schauer (schwach)
VLIELAND ISLAND
NL 2
Do 19.05. 13:591616100 %1018
1018
1018
SSW 3 (9)3900Bedeckt (1800)
Stark bewölkt (1500)
Wolkig (150)
Regen
VLIELAND ISLAND
NL 2
Do 19.05. 13:551616100 %1018
1018
1018
SW 3 (10)3500Stark bewölkt (1800)
Wolkig (1600)
Leicht bewölkt (150)
Regen-Schauer
VLIELAND ISLAND
NL 2
Do 19.05. 13:40161594 %1017
1017
1017
WSW 3 (9)4000Bedeckt (2600)
Wolkig Cb (460)
Leicht bewölkt (91)
Regen-Schauer (schwach)
VLIELAND ISLAND
NL 2
Do 19.05. 13:29161594 %1017
1017
1017
W 4 (12)3100Bedeckt (2100)
Wolkig (730)
Leicht bewölkt Cb (460)
Leicht bewölkt (150)
Gewitter mit Regen
VLIELAND ISLAND
NL 2
Do 19.05. 13:25171588 %1017
1017
1017
WSW 4 (13)
SSW - WNW
2900Stark bewölkt (2000)
Wolkig (730)
Leicht bewölkt Cb (460)
Leicht bewölkt (150)
Regen-Schauer (schwach)
VLIELAND ISLAND
NL 2
Do 19.05. 13:19181794 %1017
1017
1017
SW 3 (9)
S - W
3300Stark bewölkt (2000)
Wolkig (1600)
Leicht bewölkt Cb (460)
Leicht bewölkt (30)
Regen-Schauer
VLIELAND ISLAND
NL 2
Do 19.05. 13:12181794 %1017
1017
1017
SSW 3 (8)4400Stark bewölkt (1700)
Wolkig (1200)
Leicht bewölkt Cb (460)
Leicht bewölkt (30)
Regen-Schauer (schwach)
VLIELAND ISLAND
NL 2
Do 19.05. 13:11181794 %1017
1017
1017
SSW 3 (7)4200Bedeckt (2200)
Wolkig (1300)
Leicht bewölkt Cb (460)
Leicht bewölkt (30)
Regen (schwach)
VLIELAND ISLAND
NL 2
Do 19.05. 12:55181794 %1017
1017
1017
SSW 3 (8)7000Bedeckt (2400)
Leicht bewölkt Cb (460)
Leicht bewölkt (210)
Nebeldunst
VLIELAND ISLAND
NL 2
Do 19.05. 12:50181794 %1016
1016
1016
S 3 (8)
ONO - SW
9000Bedeckt (2600)
Stark bewölkt (2400)
Leicht bewölkt Cb (460)
Leicht bewölkt (210)
Nebeldunst
VLIELAND ISLAND
NL 2
Do 19.05. 12:25181794 %1015
1015
1015
SO 4 (12)7000Bedeckt (2600)Nebeldunst
VLIELAND ISLAND
NL 2
Do 19.05. 12:01181794 %1015
1015
1015
OSO 5 (16)7000Bedeckt (3000)
Stark bewölkt (3000)
Wolkig (2800)
Nebeldunst
VLIELAND ISLAND
NL 2
Do 19.05. 11:59181794 %1015
1015
1015
OSO 5 (16)8000Bedeckt (3000)
Wolkig (3000)
Leicht bewölkt (2300)
Nebeldunst
VLIELAND ISLAND
NL 2
Do 19.05. 11:55181794 %1015
1015
1015
OSO 5 (17)6000Bedeckt (3000)
Leicht bewölkt (2000)
Nebeldunst
VLIELAND ISLAND
NL 2
Do 19.05. 11:48181794 %1015
1015
1015
OSO 5 (16)6000Bedeckt (3000)
Wolkig (2100)
Leicht bewölkt (2000)
Nebeldunst
VLIELAND ISLAND
NL 2
Do 19.05. 11:25171694 %1015
1015
1015
O 4 (13)3100Stark bewölkt (2800)
Wolkig (2500)
Leicht bewölkt Cb (460)
Nieselregen (schwach)
VLIELAND ISLAND
NL 2
Do 19.05. 11:12171694 %1015
1015
1015
O 4 (12)3200Stark bewölkt (2700)
Wolkig (2100)
Leicht bewölkt Cb (460)
Leicht bewölkt (61)
Nieselregen
VLIELAND ISLAND
NL 2
Do 19.05. 11:081717100 %1015
1015
1015
O 4 (11)3000Stark bewölkt (2100)
Wolkig Cb (460)
Wolkig (30)
Nieselregen/Regen
VLIELAND ISLAND
NL 2
Do 19.05. 11:061717100 %1015
1015
1015
O 4 (11)3100Stark bewölkt (2700)
Wolkig Cb (460)
Wolkig (30)
Regen (schwach)
VLIELAND ISLAND
NL 2
Do 19.05. 10:551717100 %1016
1016
1016
O 3 (10)3400Bedeckt (2900)
Stark bewölkt (2700)
Wolkig Cb (460)
Leicht bewölkt (61)
Regen (schwach)
VLIELAND ISLAND
NL 2
Do 19.05. 10:461717100 %1016
1016
1016
OSO 3 (7)4300Bedeckt (3000)
Leicht bewölkt Cb (460)
Nieselregen
VLIELAND ISLAND
NL 2
Do 19.05. 10:33171694 %1017
1017
1017
SO 3 (7)3700Bedeckt (2800)
Stark bewölkt (2700)
Leicht bewölkt Cb (460)
Nieselregen (schwach)
VLIELAND ISLAND
NL 2
Do 19.05. 10:29171694 %1017
1017
1017
SO 2 (6)3600Bedeckt (2600)
Wolkig (2400)
Leicht bewölkt Cb (460)
Nieselregen
VLIELAND ISLAND
NL 2
Do 19.05. 10:25171694 %1017
1017
1017
SO 2 (4)
OSO - S
4000Stark bewölkt (2800)
Stark bewölkt (2600)
Wolkig (2400)
Leicht bewölkt Cb (460)
Nieselregen (schwach)
VLIELAND ISLAND
NL 2
Do 19.05. 10:19171694 %1017
1017
1017
S 2 (5)
OSO - SSW
3400Stark bewölkt (2800)
Stark bewölkt (2600)
Leicht bewölkt Cb (460)
Regen (schwach)
VLIELAND ISLAND
NL 2
Do 19.05. 10:11171694 %1017
1017
1017
SSW 2 (6)4000Stark bewölkt (2000)
Wolkig (1500)
Leicht bewölkt Cb (460)
Nebeldunst
VLIELAND ISLAND
NL 2
Do 19.05. 10:001616100 %1017
1017
1017
WSW 3 (8)
SSW - WNW
2700Bedeckt (1700)
Stark bewölkt (1500)
Leicht bewölkt Cb (460)
Nebeldunst
VLIELAND ISLAND
NL 2
Do 19.05. 09:591616100 %1017
1017
1017
W 3 (8)2500Bedeckt (1700)
Stark bewölkt (1500)
Leicht bewölkt Cb (460)
Nebeldunst
VLIELAND ISLAND
NL 2
Do 19.05. 09:55171694 %1017
1017
1017
W 3 (7)
SSW - WNW
4100Stark bewölkt (2000)
Stark bewölkt (1800)
Stark bewölkt (1600)
Leicht bewölkt Cb (460)
Nebeldunst
VLIELAND ISLAND
NL 2
Do 19.05. 09:42171694 %1017
1017
1017
S 2 (4)
SSO - SSW
6000Bedeckt (2500)
Wolkig (2300)
Leicht bewölkt Cb (460)
Regen (schwach)
VLIELAND ISLAND
NL 2
Do 19.05. 09:291717100 %1016
1016
1016
Uml 1 (2)5000Bedeckt (2500)
Stark bewölkt (2300)
Nebeldunst
VLIELAND ISLAND
NL 2
Do 19.05. 09:251717100 %1016
1016
1016
O 2 (5)3900Bedeckt (2700)
Stark bewölkt (2300)
Nebeldunst
VLIELAND ISLAND
NL 2
Do 19.05. 08:55171694 %1016
1016
1016
OSO 4 (11)2600Bedeckt (3000)Nebeldunst
VLIELAND ISLAND
NL 2
Do 19.05. 08:251717100 %1016
1016
1016
O 2 (3)2800Bedeckt (2400)
Leicht bewölkt (2100)
Nebeldunst
VLIELAND ISLAND
NL 2
Do 19.05. 08:04171694 %1016
1016
1016
O 2 (5)
O - SO
3100Stark bewölkt (1800)
Wolkig (580)
Leicht bewölkt Cb (460)
Leicht bewölkt (30)
Regen (schwach)
VLIELAND ISLAND
NL 2
Do 19.05. 08:00171694 %1017
1017
1017
OSO 2 (4)3700Stark bewölkt (1400)
Leicht bewölkt Cb (460)
Wolkig (300)
Leicht bewölkt (0)
Regen-Schauer (schwach)
VLIELAND ISLAND
NL 2
Do 19.05. 07:55171694 %1017
1017
1017
SO 2 (3)
OSO - S
2900Stark bewölkt (2100)
Wolkig (1500)
Leicht bewölkt Cb (460)
Leicht bewölkt (210)
Regen-Schauer
Nieselregen (stark)
VLIELAND ISLAND
NL 2
Do 19.05. 07:47171694 %1017
1017
1017
SSO 2 (5)4200Stark bewölkt (1700)
Stark bewölkt (1500)
Leicht bewölkt Cb (460)
Regen (schwach)
VLIELAND ISLAND
NL 2
Do 19.05. 07:38171694 %1017
1017
1017
SSO 2 (6)3100Bedeckt (1600)
Stark bewölkt (1500)
Wolkig Cb (460)
Nieselregen/Regen
VLIELAND ISLAND
NL 2
Do 19.05. 07:34171694 %1017
1017
1017
SO 3 (8)2700Bedeckt (1400)
Wolkig Cb (460)
Regen (schwach)
VLIELAND ISLAND
NL 2
Do 19.05. 07:251616100 %1017
1017
1017
SSO 3 (7)1700Stark bewölkt (1100)
Stark bewölkt (940)
Stark bewölkt Cb (460)
Leicht bewölkt (150)
Regen (schwach)
VLIELAND ISLAND
NL 2
Do 19.05. 06:59161594 %1018
1018
1018
S 2 (6)1100Stark bewölkt Cb (460)
Stark bewölkt (0)
Gewitter mit Regen (stark)
VLIELAND ISLAND
NL 2
Do 19.05. 06:55161594 %1018
1018
1018
SSW 3 (9)2600Stark bewölkt Cb (460)
Stark bewölkt (210)
Stark bewölkt (91)
Stark bewölkt (0)
Gewitter mit Regen (stark)
VLIELAND ISLAND
NL 2
Do 19.05. 06:50161594 %1018
1018
1018
SW 4 (11)2900Wolkig Cb (460)
Stark bewölkt (270)
Wolkig (91)
Leicht bewölkt (0)
Gewitter mit Regen (stark)
VLIELAND ISLAND
NL 2
Do 19.05. 06:43171588 %1018
1018
1018
SSW 3 (10)
S - SW
3300Bedeckt (1500)
Stark bewölkt (940)
Leicht bewölkt Cb (460)
Leicht bewölkt (150)
Gewitter mit Regen
VLIELAND ISLAND
NL 2
Do 19.05. 06:41171588 %1018
1018
1018
SSW 3 (8)
S - SW
5000Bedeckt (910)
Leicht bewölkt Cb (460)
Leicht bewölkt (150)
Gewitter mit Regen
VLIELAND ISLAND
NL 2
Do 19.05. 06:25171588 %1018
1018
1018
SW 4 (12)
SSO - W
8000Stark bewölkt (2400)
Wolkig (520)
Leicht bewölkt Cb (460)
Leicht bewölkt (30)
Gewitter mit Regen (schwach)
VLIELAND ISLAND
NL 2
Do 19.05. 06:19161594 %1017
1017
1017
SW 5 (17) - 7 (29)
SO - W
7000Bedeckt (2300)
Wolkig (580)
Leicht bewölkt Cb (460)
Leicht bewölkt (400)
Gewitter mit Regen (schwach)
VLIELAND ISLAND
NL 2
Do 19.05. 06:12171588 %1016
1016
1016
S 4 (15)
SO - W
7000Stark bewölkt (2800)
Stark bewölkt (2600)
Stark bewölkt (2300)
Leicht bewölkt Cb (460)
Nebeldunst
VLIELAND ISLAND
NL 2
Do 19.05. 06:11171588 %1016
1016
1016
SO 4 (15)7000Stark bewölkt (2300)
Wolkig (610)
Leicht bewölkt Cb (460)
Leicht bewölkt (30)
Gewitter mit Regen (schwach)
VLIELAND ISLAND
NL 2
Do 19.05. 06:03171588 %1016
1016
1016
SO 5 (16)6000Leicht bewölkt Cb (460)
Stark bewölkt (150)
Wolkig (120)
Leicht bewölkt (0)
Gewitter mit Regen (schwach)
VLIELAND ISLAND
NL 2
Do 19.05. 06:00171588 %1016
1016
1016
SO 5 (17)6000Leicht bewölkt Cb (460)
Stark bewölkt (240)
Wolkig (150)
Leicht bewölkt (0)
Gewitter mit Regen (schwach)
VLIELAND ISLAND
NL 2
Do 19.05. 05:55171588 %1015
1015
1015
SO 5 (18)6000Leicht bewölkt Cb (460)
Stark bewölkt (370)
Wolkig (150)
Leicht bewölkt (0)
Gewitter mit Regen (schwach)
VLIELAND ISLAND
NL 2
Do 19.05. 05:44161594 %1015
1015
1015
SO 5 (18)5000Bedeckt (1600)
Leicht bewölkt Cb (460)
Stark bewölkt (150)
Stark bewölkt (0)
Gewitter mit Regen (schwach)
VLIELAND ISLAND
NL 2
Do 19.05. 05:43161594 %1015
1015
1015
SO 5 (20)5000Stark bewölkt (820)
Leicht bewölkt Cb (460)
Wolkig (150)
Wolkig (0)
Gewitter mit Regen (schwach)
VLIELAND ISLAND
NL 2
Do 19.05. 05:39161594 %1015
1015
1015
SO 6 (21)5000Bedeckt (2700)
Stark bewölkt (2100)
Leicht bewölkt Cb (460)
Leicht bewölkt (0)
Gewitter mit Regen (schwach)
VLIELAND ISLAND
NL 2
Do 19.05. 05:32161594 %1015
1015
1015
SO 5 (19)9000Bedeckt (2600)
Wolkig (2200)
Leicht bewölkt Cb (460)
Leicht bewölkt (0)
Gewitter mit Regen (schwach)
VLIELAND ISLAND
NL 2
Do 19.05. 05:26161594 %1015
1015
1015
SO 4 (14)6000Stark bewölkt (2100)
Leicht bewölkt Cb (460)
Wolkig (150)
Leicht bewölkt (0)
Gewitter mit Regen (schwach)
VLIELAND ISLAND
NL 2
Do 19.05. 05:25161594 %1015
1015
1015
SO 4 (14)5000Stark bewölkt (2100)
Leicht bewölkt Cb (460)
Wolkig (270)
Leicht bewölkt (0)
Gewitter mit Regen
VLIELAND ISLAND
NL 2
Do 19.05. 05:14161594 %1015
1015
1015
SO 4 (14)>= 10000Bedeckt (3000)
Leicht bewölkt Cb (460)
 
VLIELAND ISLAND
NL 2
Do 19.05. 04:55161594 %1016
1016
1016
SO 4 (14)>= 10000Bedeckt (5800)
Stark bewölkt (3000)
 
VLIELAND ISLAND
NL 2
Do 19.05. 04:25161594 %1016
1016
1016
SO 4 (13)>= 10000Bedeckt (6100)
Wolkig (3700)
 
VLIELAND ISLAND
NL 2
Do 19.05. 03:55161594 %1016
1016
1016
OSO 4 (15)>= 10000Bedeckt (7000) 
VLIELAND ISLAND
NL 2
Do 19.05. 03:25161488 %1016
1016
1016
OSO 5 (16)>= 10000Bedeckt (7000) 
VLIELAND ISLAND
NL 2
Do 19.05. 02:55161488 %1017
1017
1017
OSO 5 (16)>= 10000Bedeckt (6700) 
VLIELAND ISLAND
NL 2
Do 19.05. 02:25161382 %1017
1017
1017
OSO 4 (15)>= 10000Bedeckt (7000) 
VLIELAND ISLAND
NL 2
Do 19.05. 01:55151388 %1018
1018
1018
OSO 4 (13)>= 10000Bedeckt (3400) 
VLIELAND ISLAND
NL 2
Do 19.05. 01:251414100 %1018
1018
1018
O 3 (9)>= 10000Bedeckt (7600)
Wolkig (3400)
 
VLIELAND ISLAND
NL 2
Do 19.05. 00:551313100 %1019
1019
1019
O 2 (6)>= 10000Bedeckt (7000) 
VLIELAND ISLAND
NL 2
Do 19.05. 00:25131294 %1019
1019
1019
ONO 3 (7)>= 10000Bedeckt (6400) 
VLIELAND ISLAND
NL 2
Mi 18.05. 23:55131294 %1019
1019
1019
ONO 3 (7)>= 10000Bedeckt (6700) 
VLIELAND ISLAND
NL 2
Mi 18.05. 23:25141394 %1019
1019
1019
ONO 3 (7)>= 10000Bedeckt (7300) 
VLIELAND ISLAND
NL 2
Mi 18.05. 22:55121088 %1019
1019
1019
ONO 2 (5)>= 10000Bedeckt (7300) 
VLIELAND ISLAND
NL 2
Mi 18.05. 22:25121194 %1020
1020
1020
NO 2 (4)>= 10000Bedeckt (7900) 
VLIELAND ISLAND
NL 2
Mi 18.05. 21:55131188 %1019
1019
1019
ONO 2 (4)>= 10000Bedeckt (7900) 
VLIELAND ISLAND
NL 2
Mi 18.05. 21:25131294 %1020
1020
1020
NO 2 (3)>= 10000Bedeckt (7900) 
VLIELAND ISLAND
NL 2
Mi 18.05. 20:55141288 %1020
1020
1020
N 2 (3)
NNW - NO
>= 10000Bedeckt (7900) 
VLIELAND ISLAND
NL 2
Mi 18.05. 20:25141288 %1020
1020
1020
N 2 (3)>= 10000Bedeckt (7300) 
VLIELAND ISLAND
NL 2
Mi 18.05. 19:55151282 %1020
1020
1020
N 2 (3)
NNW - NNO
>= 10000Bedeckt (7300) 
VLIELAND ISLAND
NL 2
Mi 18.05. 19:25151282 %1020
1020
1020
NNO 2 (5)>= 10000Bedeckt (7600) 
VLIELAND ISLAND
NL 2
Mi 18.05. 18:55151282 %1021
1021
1021
N 2 (4)>= 10000Bedeckt (8200) 
VLIELAND ISLAND
NL 2
Mi 18.05. 18:25151177 %1021
1021
1021
NNW 2 (6)
NW - N
>= 10000Bedeckt (11000) 
VLIELAND ISLAND
NL 2
Mi 18.05. 17:55161172 %1021
1021
1021
NNW 2 (6)>= 10000Bedeckt (11000)
Wolkig (8500)
 
VLIELAND ISLAND
NL 2
Mi 18.05. 17:25161277 %1021
1021
1021
NNW 2 (5)>= 10000Bedeckt (10000)
Stark bewölkt (7900)
 
VLIELAND ISLAND
NL 2
Mi 18.05. 16:55161277 %1021
1021
1021
NNW 3 (7)>= 10000Bedeckt (11000)
Stark bewölkt (8200)
 
VLIELAND ISLAND
NL 2
Mi 18.05. 16:25161172 %1021
1021
1021
NNW 3 (8)>= 10000Bedeckt (11000)
Stark bewölkt (7900)
 
VLIELAND ISLAND
NL 2
Mi 18.05. 15:55161172 %1021
1021
1021
NNW 3 (9)>= 10000Bedeckt (8800) 

Altimeter: Einstellung am Altimeter (Höhenmesser), die Höhe 0 muss auf diesen Luftdruckwert zeigen, damit das Gerät die Stationshöhe richtig anzeigt.

NN: Luftdruck reduziert auf "Normal Null", auf Meereshöhe, dieser von der Temperatur abhängige Wert wird bisweilen unkorrekt einfach als "Luftdruck" bezeichnet. Eigentlich nur eine fiktive Größe, die es erlaubt, Stationen auf unterschiedlichen Höhen miteinander zu vergleichen.

Station: Realer Luftdruck an der Station.